sensor_id;sensor_type;location;lat;lon;timestamp;temperature;humidity
12413;DHT22;13877;18.896;-99.222;2024-01-30T00:02:01;21.10;1.00
12413;DHT22;13877;18.896;-99.222;2024-01-30T00:04:28;21.10;1.00
12413;DHT22;13877;18.896;-99.222;2024-01-30T00:06:57;21.00;1.00
12413;DHT22;13877;18.896;-99.222;2024-01-30T00:09:25;21.00;1.00
12413;DHT22;13877;18.896;-99.222;2024-01-30T00:11:52;20.90;1.00
12413;DHT22;13877;18.896;-99.222;2024-01-30T00:14:21;20.90;1.00
12413;DHT22;13877;18.896;-99.222;2024-01-30T00:16:48;20.80;1.00
12413;DHT22;13877;18.896;-99.222;2024-01-30T00:19:15;20.70;1.00
12413;DHT22;13877;18.896;-99.222;2024-01-30T00:21:42;20.60;1.00
12413;DHT22;13877;18.896;-99.222;2024-01-30T00:24:10;20.60;1.00
12413;DHT22;13877;18.896;-99.222;2024-01-30T00:26:37;20.50;1.00
12413;DHT22;13877;18.896;-99.222;2024-01-30T00:29:04;20.40;1.00
12413;DHT22;13877;18.896;-99.222;2024-01-30T00:31:31;20.30;1.00
12413;DHT22;13877;18.896;-99.222;2024-01-30T00:33:59;20.20;1.00
12413;DHT22;13877;18.896;-99.222;2024-01-30T00:36:26;20.20;1.00
12413;DHT22;13877;18.896;-99.222;2024-01-30T00:38:56;20.10;1.00
12413;DHT22;13877;18.896;-99.222;2024-01-30T00:41:23;20.10;1.00
12413;DHT22;13877;18.896;-99.222;2024-01-30T00:43:51;20.00;1.00
12413;DHT22;13877;18.896;-99.222;2024-01-30T00:46:18;20.00;1.00
12413;DHT22;13877;18.896;-99.222;2024-01-30T00:48:47;19.90;1.00
12413;DHT22;13877;18.896;-99.222;2024-01-30T00:51:14;19.90;1.00
12413;DHT22;13877;18.896;-99.222;2024-01-30T00:53:41;19.80;1.00
12413;DHT22;13877;18.896;-99.222;2024-01-30T00:56:08;19.70;1.00
12413;DHT22;13877;18.896;-99.222;2024-01-30T00:58:35;19.60;1.00
12413;DHT22;13877;18.896;-99.222;2024-01-30T01:01:03;19.50;1.00
12413;DHT22;13877;18.896;-99.222;2024-01-30T01:03:30;19.40;1.00
12413;DHT22;13877;18.896;-99.222;2024-01-30T01:05:57;19.30;1.00
12413;DHT22;13877;18.896;-99.222;2024-01-30T01:08:25;19.20;1.00
12413;DHT22;13877;18.896;-99.222;2024-01-30T01:10:52;19.00;1.00
12413;DHT22;13877;18.896;-99.222;2024-01-30T01:13:19;19.00;1.00
12413;DHT22;13877;18.896;-99.222;2024-01-30T01:15:47;19.00;1.00
12413;DHT22;13877;18.896;-99.222;2024-01-30T01:18:14;19.00;1.00
12413;DHT22;13877;18.896;-99.222;2024-01-30T01:20:42;19.00;1.00
12413;DHT22;13877;18.896;-99.222;2024-01-30T01:23:10;19.10;1.00
12413;DHT22;13877;18.896;-99.222;2024-01-30T01:25:37;19.20;1.00
12413;DHT22;13877;18.896;-99.222;2024-01-30T01:28:04;19.20;1.00
12413;DHT22;13877;18.896;-99.222;2024-01-30T01:30:32;19.20;1.00
12413;DHT22;13877;18.896;-99.222;2024-01-30T01:32:59;19.20;1.00
12413;DHT22;13877;18.896;-99.222;2024-01-30T01:35:28;19.10;1.00
12413;DHT22;13877;18.896;-99.222;2024-01-30T01:37:56;19.20;1.00
12413;DHT22;13877;18.896;-99.222;2024-01-30T01:40:25;19.30;1.00
12413;DHT22;13877;18.896;-99.222;2024-01-30T01:42:53;19.40;1.00
12413;DHT22;13877;18.896;-99.222;2024-01-30T01:45:21;19.40;1.00
12413;DHT22;13877;18.896;-99.222;2024-01-30T01:47:51;19.50;1.00
12413;DHT22;13877;18.896;-99.222;2024-01-30T01:50:19;19.50;1.00
12413;DHT22;13877;18.896;-99.222;2024-01-30T01:52:50;19.50;1.00
12413;DHT22;13877;18.896;-99.222;2024-01-30T01:55:18;19.50;1.00
12413;DHT22;13877;18.896;-99.222;2024-01-30T01:57:48;19.50;1.00
12413;DHT22;13877;18.896;-99.222;2024-01-30T02:00:16;19.30;1.00
12413;DHT22;13877;18.896;-99.222;2024-01-30T02:02:44;19.00;1.00
12413;DHT22;13877;18.896;-99.222;2024-01-30T02:05:12;18.80;1.00
12413;DHT22;13877;18.896;-99.222;2024-01-30T02:07:39;18.80;1.00
12413;DHT22;13877;18.896;-99.222;2024-01-30T02:10:08;18.80;1.00
12413;DHT22;13877;18.896;-99.222;2024-01-30T02:12:36;18.70;1.00
12413;DHT22;13877;18.896;-99.222;2024-01-30T02:15:04;18.60;1.00
12413;DHT22;13877;18.896;-99.222;2024-01-30T02:17:32;18.70;1.00
12413;DHT22;13877;18.896;-99.222;2024-01-30T02:19:59;18.80;1.00
12413;DHT22;13877;18.896;-99.222;2024-01-30T02:22:27;18.80;1.00
12413;DHT22;13877;18.896;-99.222;2024-01-30T02:24:54;18.70;1.00
12413;DHT22;13877;18.896;-99.222;2024-01-30T02:27:23;18.70;1.00
12413;DHT22;13877;18.896;-99.222;2024-01-30T02:29:51;18.80;1.00
12413;DHT22;13877;18.896;-99.222;2024-01-30T02:32:18;18.70;1.00
12413;DHT22;13877;18.896;-99.222;2024-01-30T02:34:46;18.60;1.00
12413;DHT22;13877;18.896;-99.222;2024-01-30T02:37:14;18.60;1.00
12413;DHT22;13877;18.896;-99.222;2024-01-30T02:39:43;18.60;1.00
12413;DHT22;13877;18.896;-99.222;2024-01-30T02:42:10;18.60;1.00
12413;DHT22;13877;18.896;-99.222;2024-01-30T02:44:37;18.50;1.00
12413;DHT22;13877;18.896;-99.222;2024-01-30T02:47:05;18.50;1.00
12413;DHT22;13877;18.896;-99.222;2024-01-30T02:49:33;18.40;1.00
12413;DHT22;13877;18.896;-99.222;2024-01-30T02:52:01;18.20;1.00
12413;DHT22;13877;18.896;-99.222;2024-01-30T02:54:29;18.10;1.00
12413;DHT22;13877;18.896;-99.222;2024-01-30T02:56:57;18.10;1.00
12413;DHT22;13877;18.896;-99.222;2024-01-30T02:59:27;18.10;1.00
12413;DHT22;13877;18.896;-99.222;2024-01-30T03:01:54;18.20;1.00
12413;DHT22;13877;18.896;-99.222;2024-01-30T03:04:21;18.20;1.00
12413;DHT22;13877;18.896;-99.222;2024-01-30T03:06:49;18.30;1.00
12413;DHT22;13877;18.896;-99.222;2024-01-30T03:09:19;18.30;1.00
12413;DHT22;13877;18.896;-99.222;2024-01-30T03:11:46;18.30;1.00
12413;DHT22;13877;18.896;-99.222;2024-01-30T03:14:13;18.30;1.00
12413;DHT22;13877;18.896;-99.222;2024-01-30T03:16:40;18.20;1.00
12413;DHT22;13877;18.896;-99.222;2024-01-30T03:19:08;18.20;1.00
12413;DHT22;13877;18.896;-99.222;2024-01-30T03:21:35;18.20;1.00
12413;DHT22;13877;18.896;-99.222;2024-01-30T03:24:03;18.20;1.00
12413;DHT22;13877;18.896;-99.222;2024-01-30T03:26:30;18.00;1.00
12413;DHT22;13877;18.896;-99.222;2024-01-30T03:28:57;17.90;1.00
12413;DHT22;13877;18.896;-99.222;2024-01-30T03:31:24;17.90;1.00
12413;DHT22;13877;18.896;-99.222;2024-01-30T03:33:51;17.90;1.00
12413;DHT22;13877;18.896;-99.222;2024-01-30T03:36:18;17.90;1.00
12413;DHT22;13877;18.896;-99.222;2024-01-30T03:38:46;17.90;1.00
12413;DHT22;13877;18.896;-99.222;2024-01-30T03:41:15;18.10;1.00
12413;DHT22;13877;18.896;-99.222;2024-01-30T03:43:42;18.30;1.00
12413;DHT22;13877;18.896;-99.222;2024-01-30T03:46:11;18.20;1.00
12413;DHT22;13877;18.896;-99.222;2024-01-30T03:48:38;18.30;1.00
12413;DHT22;13877;18.896;-99.222;2024-01-30T03:51:05;18.30;1.00
12413;DHT22;13877;18.896;-99.222;2024-01-30T03:53:33;18.20;1.00
12413;DHT22;13877;18.896;-99.222;2024-01-30T03:56:00;18.00;1.00
12413;DHT22;13877;18.896;-99.222;2024-01-30T03:58:27;17.90;1.00
12413;DHT22;13877;18.896;-99.222;2024-01-30T04:00:54;18.00;1.00
12413;DHT22;13877;18.896;-99.222;2024-01-30T04:03:23;17.90;1.00
12413;DHT22;13877;18.896;-99.222;2024-01-30T04:05:53;17.80;1.00
12413;DHT22;13877;18.896;-99.222;2024-01-30T04:08:21;17.80;1.00
12413;DHT22;13877;18.896;-99.222;2024-01-30T04:10:48;17.80;1.00
12413;DHT22;13877;18.896;-99.222;2024-01-30T04:13:15;17.90;1.00
12413;DHT22;13877;18.896;-99.222;2024-01-30T04:15:42;17.90;1.00
12413;DHT22;13877;18.896;-99.222;2024-01-30T04:18:11;17.90;1.00
12413;DHT22;13877;18.896;-99.222;2024-01-30T04:20:39;18.00;1.00
12413;DHT22;13877;18.896;-99.222;2024-01-30T04:23:06;18.20;1.00
12413;DHT22;13877;18.896;-99.222;2024-01-30T04:25:33;18.30;1.00
12413;DHT22;13877;18.896;-99.222;2024-01-30T04:28:01;18.50;1.00
12413;DHT22;13877;18.896;-99.222;2024-01-30T04:30:28;18.50;1.00
12413;DHT22;13877;18.896;-99.222;2024-01-30T04:32:55;18.60;1.00
12413;DHT22;13877;18.896;-99.222;2024-01-30T04:35:22;18.60;1.00
12413;DHT22;13877;18.896;-99.222;2024-01-30T04:37:53;18.70;1.00
12413;DHT22;13877;18.896;-99.222;2024-01-30T04:40:21;18.70;1.00
12413;DHT22;13877;18.896;-99.222;2024-01-30T04:42:48;18.70;1.00
12413;DHT22;13877;18.896;-99.222;2024-01-30T04:45:15;18.80;1.00
12413;DHT22;13877;18.896;-99.222;2024-01-30T04:47:43;18.80;1.00
12413;DHT22;13877;18.896;-99.222;2024-01-30T04:50:10;18.80;1.00
12413;DHT22;13877;18.896;-99.222;2024-01-30T04:52:37;18.70;1.00
12413;DHT22;13877;18.896;-99.222;2024-01-30T04:55:05;18.60;1.00
12413;DHT22;13877;18.896;-99.222;2024-01-30T04:57:32;18.60;1.00
12413;DHT22;13877;18.896;-99.222;2024-01-30T05:00:00;18.60;1.00
12413;DHT22;13877;18.896;-99.222;2024-01-30T05:02:27;18.40;1.00
12413;DHT22;13877;18.896;-99.222;2024-01-30T05:04:54;18.40;1.00
12413;DHT22;13877;18.896;-99.222;2024-01-30T05:07:22;18.40;1.00
12413;DHT22;13877;18.896;-99.222;2024-01-30T05:09:49;18.40;1.00
12413;DHT22;13877;18.896;-99.222;2024-01-30T05:12:16;18.30;1.00
12413;DHT22;13877;18.896;-99.222;2024-01-30T05:14:43;18.30;1.00
12413;DHT22;13877;18.896;-99.222;2024-01-30T05:17:10;18.20;1.00
12413;DHT22;13877;18.896;-99.222;2024-01-30T05:19:39;18.10;1.00
12413;DHT22;13877;18.896;-99.222;2024-01-30T05:22:06;18.20;1.00
12413;DHT22;13877;18.896;-99.222;2024-01-30T05:24:33;18.20;1.00
12413;DHT22;13877;18.896;-99.222;2024-01-30T05:27:01;18.20;1.00
12413;DHT22;13877;18.896;-99.222;2024-01-30T05:29:30;18.30;1.00
12413;DHT22;13877;18.896;-99.222;2024-01-30T05:31:58;18.60;1.00
12413;DHT22;13877;18.896;-99.222;2024-01-30T05:34:25;18.70;1.00
12413;DHT22;13877;18.896;-99.222;2024-01-30T05:36:52;18.80;1.00
12413;DHT22;13877;18.896;-99.222;2024-01-30T05:39:19;18.70;1.00
12413;DHT22;13877;18.896;-99.222;2024-01-30T05:41:46;18.70;1.00
12413;DHT22;13877;18.896;-99.222;2024-01-30T05:44:13;18.40;1.00
12413;DHT22;13877;18.896;-99.222;2024-01-30T05:46:41;18.20;1.00
12413;DHT22;13877;18.896;-99.222;2024-01-30T05:49:08;18.10;1.00
12413;DHT22;13877;18.896;-99.222;2024-01-30T05:51:35;18.10;1.00
12413;DHT22;13877;18.896;-99.222;2024-01-30T05:54:02;18.00;1.00
12413;DHT22;13877;18.896;-99.222;2024-01-30T05:56:31;18.00;1.00
12413;DHT22;13877;18.896;-99.222;2024-01-30T05:58:58;18.00;1.00
12413;DHT22;13877;18.896;-99.222;2024-01-30T06:01:26;17.90;1.00
12413;DHT22;13877;18.896;-99.222;2024-01-30T06:03:53;17.90;1.00
12413;DHT22;13877;18.896;-99.222;2024-01-30T06:06:20;17.80;1.00
12413;DHT22;13877;18.896;-99.222;2024-01-30T06:08:48;17.80;1.00
12413;DHT22;13877;18.896;-99.222;2024-01-30T06:11:15;17.60;1.00
12413;DHT22;13877;18.896;-99.222;2024-01-30T06:13:43;17.60;1.00
12413;DHT22;13877;18.896;-99.222;2024-01-30T06:16:10;17.70;1.00
12413;DHT22;13877;18.896;-99.222;2024-01-30T06:18:38;17.70;1.00
12413;DHT22;13877;18.896;-99.222;2024-01-30T06:21:05;17.80;1.00
12413;DHT22;13877;18.896;-99.222;2024-01-30T06:23:32;17.80;1.00
12413;DHT22;13877;18.896;-99.222;2024-01-30T06:26:00;17.70;1.00
12413;DHT22;13877;18.896;-99.222;2024-01-30T06:28:27;17.70;1.00
12413;DHT22;13877;18.896;-99.222;2024-01-30T06:30:55;17.70;1.00
12413;DHT22;13877;18.896;-99.222;2024-01-30T06:33:22;17.70;1.00
12413;DHT22;13877;18.896;-99.222;2024-01-30T06:35:50;17.50;1.00
12413;DHT22;13877;18.896;-99.222;2024-01-30T06:38:17;17.30;1.00
12413;DHT22;13877;18.896;-99.222;2024-01-30T06:40:44;17.20;1.00
12413;DHT22;13877;18.896;-99.222;2024-01-30T06:43:11;17.20;1.00
12413;DHT22;13877;18.896;-99.222;2024-01-30T06:45:38;17.50;1.00
12413;DHT22;13877;18.896;-99.222;2024-01-30T06:48:07;17.60;1.00
12413;DHT22;13877;18.896;-99.222;2024-01-30T06:50:34;17.50;1.00
12413;DHT22;13877;18.896;-99.222;2024-01-30T06:53:01;17.40;1.00
12413;DHT22;13877;18.896;-99.222;2024-01-30T06:55:29;17.30;1.00
12413;DHT22;13877;18.896;-99.222;2024-01-30T06:57:56;17.00;1.00
12413;DHT22;13877;18.896;-99.222;2024-01-30T07:00:23;16.80;1.00
12413;DHT22;13877;18.896;-99.222;2024-01-30T07:02:51;16.60;1.00
12413;DHT22;13877;18.896;-99.222;2024-01-30T07:05:18;16.50;1.00
12413;DHT22;13877;18.896;-99.222;2024-01-30T07:07:45;16.40;1.00
12413;DHT22;13877;18.896;-99.222;2024-01-30T07:10:13;16.30;1.00
12413;DHT22;13877;18.896;-99.222;2024-01-30T07:12:40;16.30;1.00
12413;DHT22;13877;18.896;-99.222;2024-01-30T07:15:07;16.40;1.00
12413;DHT22;13877;18.896;-99.222;2024-01-30T07:17:35;16.50;1.00
12413;DHT22;13877;18.896;-99.222;2024-01-30T07:20:04;16.60;1.00
12413;DHT22;13877;18.896;-99.222;2024-01-30T07:22:33;16.70;1.00
12413;DHT22;13877;18.896;-99.222;2024-01-30T07:25:01;16.80;1.00
12413;DHT22;13877;18.896;-99.222;2024-01-30T07:27:28;16.90;1.00
12413;DHT22;13877;18.896;-99.222;2024-01-30T07:29:55;16.70;1.00
12413;DHT22;13877;18.896;-99.222;2024-01-30T07:32:22;16.50;1.00
12413;DHT22;13877;18.896;-99.222;2024-01-30T07:34:50;16.50;1.00
12413;DHT22;13877;18.896;-99.222;2024-01-30T07:37:17;16.70;1.00
12413;DHT22;13877;18.896;-99.222;2024-01-30T07:39:44;17.00;1.00
12413;DHT22;13877;18.896;-99.222;2024-01-30T07:42:11;17.10;1.00
12413;DHT22;13877;18.896;-99.222;2024-01-30T07:44:39;17.10;1.00
12413;DHT22;13877;18.896;-99.222;2024-01-30T07:47:06;17.00;1.00
12413;DHT22;13877;18.896;-99.222;2024-01-30T07:49:34;16.90;1.00
12413;DHT22;13877;18.896;-99.222;2024-01-30T07:52:01;16.90;1.00
12413;DHT22;13877;18.896;-99.222;2024-01-30T07:54:32;17.00;1.00
12413;DHT22;13877;18.896;-99.222;2024-01-30T07:57:20;17.00;1.00
12413;DHT22;13877;18.896;-99.222;2024-01-30T07:59:47;17.00;1.00
12413;DHT22;13877;18.896;-99.222;2024-01-30T08:02:14;17.00;1.00
12413;DHT22;13877;18.896;-99.222;2024-01-30T08:04:42;17.10;1.00
12413;DHT22;13877;18.896;-99.222;2024-01-30T08:07:09;17.10;1.00
12413;DHT22;13877;18.896;-99.222;2024-01-30T08:09:36;17.10;1.00
12413;DHT22;13877;18.896;-99.222;2024-01-30T08:12:04;17.10;1.00
12413;DHT22;13877;18.896;-99.222;2024-01-30T08:14:31;17.10;1.00
12413;DHT22;13877;18.896;-99.222;2024-01-30T08:16:59;17.10;1.00
12413;DHT22;13877;18.896;-99.222;2024-01-30T08:19:26;17.10;1.00
12413;DHT22;13877;18.896;-99.222;2024-01-30T08:21:53;17.10;1.00
12413;DHT22;13877;18.896;-99.222;2024-01-30T08:24:23;17.10;1.00
12413;DHT22;13877;18.896;-99.222;2024-01-30T08:26:50;17.10;1.00
12413;DHT22;13877;18.896;-99.222;2024-01-30T08:29:17;17.00;1.00
12413;DHT22;13877;18.896;-99.222;2024-01-30T08:31:44;16.90;1.00
12413;DHT22;13877;18.896;-99.222;2024-01-30T08:34:12;16.90;1.00
12413;DHT22;13877;18.896;-99.222;2024-01-30T08:36:40;16.70;1.00
12413;DHT22;13877;18.896;-99.222;2024-01-30T08:39:07;16.60;1.00
12413;DHT22;13877;18.896;-99.222;2024-01-30T08:41:34;16.60;1.00
12413;DHT22;13877;18.896;-99.222;2024-01-30T08:44:02;16.50;1.00
12413;DHT22;13877;18.896;-99.222;2024-01-30T08:46:31;16.60;1.00
12413;DHT22;13877;18.896;-99.222;2024-01-30T08:48:58;16.60;1.00
12413;DHT22;13877;18.896;-99.222;2024-01-30T08:51:25;16.70;1.00
12413;DHT22;13877;18.896;-99.222;2024-01-30T08:53:52;16.80;1.00
12413;DHT22;13877;18.896;-99.222;2024-01-30T08:56:20;16.80;1.00
12413;DHT22;13877;18.896;-99.222;2024-01-30T08:58:47;16.80;1.00
12413;DHT22;13877;18.896;-99.222;2024-01-30T09:01:15;16.80;1.00
12413;DHT22;13877;18.896;-99.222;2024-01-30T09:03:42;16.70;1.00
12413;DHT22;13877;18.896;-99.222;2024-01-30T09:06:12;16.60;1.00
12413;DHT22;13877;18.896;-99.222;2024-01-30T09:08:40;16.60;1.00
12413;DHT22;13877;18.896;-99.222;2024-01-30T09:11:13;16.50;1.00
12413;DHT22;13877;18.896;-99.222;2024-01-30T09:13:42;16.60;1.00
12413;DHT22;13877;18.896;-99.222;2024-01-30T09:16:10;16.80;1.00
12413;DHT22;13877;18.896;-99.222;2024-01-30T09:18:37;16.90;1.00
12413;DHT22;13877;18.896;-99.222;2024-01-30T09:21:04;16.90;1.00
12413;DHT22;13877;18.896;-99.222;2024-01-30T09:23:32;16.90;1.00
12413;DHT22;13877;18.896;-99.222;2024-01-30T09:26:00;16.80;1.00
12413;DHT22;13877;18.896;-99.222;2024-01-30T09:28:27;16.90;1.00
12413;DHT22;13877;18.896;-99.222;2024-01-30T09:30:54;16.80;1.00
12413;DHT22;13877;18.896;-99.222;2024-01-30T09:33:21;16.90;1.00
12413;DHT22;13877;18.896;-99.222;2024-01-30T09:35:48;16.80;1.00
12413;DHT22;13877;18.896;-99.222;2024-01-30T09:38:17;16.70;1.00
12413;DHT22;13877;18.896;-99.222;2024-01-30T09:40:46;16.70;1.00
12413;DHT22;13877;18.896;-99.222;2024-01-30T09:43:23;16.60;1.00
12413;DHT22;13877;18.896;-99.222;2024-01-30T09:45:51;16.60;1.00
12413;DHT22;13877;18.896;-99.222;2024-01-30T09:48:19;16.60;1.00
12413;DHT22;13877;18.896;-99.222;2024-01-30T09:50:46;16.60;1.00
12413;DHT22;13877;18.896;-99.222;2024-01-30T09:53:14;16.50;1.00
12413;DHT22;13877;18.896;-99.222;2024-01-30T09:55:43;16.40;1.00
12413;DHT22;13877;18.896;-99.222;2024-01-30T09:58:12;16.50;1.00
12413;DHT22;13877;18.896;-99.222;2024-01-30T10:00:40;16.70;1.00
12413;DHT22;13877;18.896;-99.222;2024-01-30T10:03:08;16.80;1.00
12413;DHT22;13877;18.896;-99.222;2024-01-30T10:05:36;16.90;1.00
12413;DHT22;13877;18.896;-99.222;2024-01-30T10:08:07;16.90;1.00
12413;DHT22;13877;18.896;-99.222;2024-01-30T10:10:37;16.90;1.00
12413;DHT22;13877;18.896;-99.222;2024-01-30T10:13:06;16.80;1.00
12413;DHT22;13877;18.896;-99.222;2024-01-30T10:15:33;16.70;1.00
12413;DHT22;13877;18.896;-99.222;2024-01-30T10:18:02;16.70;1.00
12413;DHT22;13877;18.896;-99.222;2024-01-30T10:20:29;16.70;1.00
12413;DHT22;13877;18.896;-99.222;2024-01-30T10:22:57;16.60;1.00
12413;DHT22;13877;18.896;-99.222;2024-01-30T10:25:25;16.40;1.00
12413;DHT22;13877;18.896;-99.222;2024-01-30T10:27:55;16.40;1.00
12413;DHT22;13877;18.896;-99.222;2024-01-30T10:30:23;16.30;1.00
12413;DHT22;13877;18.896;-99.222;2024-01-30T10:32:50;16.20;1.00
12413;DHT22;13877;18.896;-99.222;2024-01-30T10:35:18;16.20;1.00
12413;DHT22;13877;18.896;-99.222;2024-01-30T10:37:47;16.20;1.00
12413;DHT22;13877;18.896;-99.222;2024-01-30T10:40:17;15.90;1.00
12413;DHT22;13877;18.896;-99.222;2024-01-30T10:42:46;15.70;1.00
12413;DHT22;13877;18.896;-99.222;2024-01-30T10:45:14;15.30;1.00
12413;DHT22;13877;18.896;-99.222;2024-01-30T10:47:54;15.00;1.00
12413;DHT22;13877;18.896;-99.222;2024-01-30T10:50:27;15.00;1.00
12413;DHT22;13877;18.896;-99.222;2024-01-30T10:52:56;14.90;1.00
12413;DHT22;13877;18.896;-99.222;2024-01-30T10:55:25;14.80;1.00
12413;DHT22;13877;18.896;-99.222;2024-01-30T10:57:54;14.40;1.00
12413;DHT22;13877;18.896;-99.222;2024-01-30T11:00:22;14.10;1.00
12413;DHT22;13877;18.896;-99.222;2024-01-30T11:02:51;14.00;1.00
12413;DHT22;13877;18.896;-99.222;2024-01-30T11:05:25;14.20;1.00
12413;DHT22;13877;18.896;-99.222;2024-01-30T11:07:55;14.50;1.00
12413;DHT22;13877;18.896;-99.222;2024-01-30T11:10:25;14.70;1.00
12413;DHT22;13877;18.896;-99.222;2024-01-30T11:12:52;14.70;1.00
12413;DHT22;13877;18.896;-99.222;2024-01-30T11:15:19;14.60;1.00
12413;DHT22;13877;18.896;-99.222;2024-01-30T11:20:27;14.40;1.00
12413;DHT22;13877;18.896;-99.222;2024-01-30T11:22:57;14.40;1.00
12413;DHT22;13877;18.896;-99.222;2024-01-30T11:25:25;14.60;1.00
12413;DHT22;13877;18.896;-99.222;2024-01-30T11:27:55;14.80;1.00
12413;DHT22;13877;18.896;-99.222;2024-01-30T11:33:13;14.90;1.00
12413;DHT22;13877;18.896;-99.222;2024-01-30T11:35:44;14.90;1.00
12413;DHT22;13877;18.896;-99.222;2024-01-30T11:38:14;15.00;1.00
12413;DHT22;13877;18.896;-99.222;2024-01-30T11:40:44;15.10;1.00
12413;DHT22;13877;18.896;-99.222;2024-01-30T11:43:11;15.20;1.00
12413;DHT22;13877;18.896;-99.222;2024-01-30T11:45:38;15.30;1.00
12413;DHT22;13877;18.896;-99.222;2024-01-30T11:48:06;15.30;1.00
12413;DHT22;13877;18.896;-99.222;2024-01-30T11:50:35;15.40;1.00
12413;DHT22;13877;18.896;-99.222;2024-01-30T11:53:05;15.40;1.00
12413;DHT22;13877;18.896;-99.222;2024-01-30T11:55:33;15.30;1.00
12413;DHT22;13877;18.896;-99.222;2024-01-30T11:58:01;15.20;1.00
12413;DHT22;13877;18.896;-99.222;2024-01-30T12:00:28;15.10;1.00
12413;DHT22;13877;18.896;-99.222;2024-01-30T12:02:57;15.00;1.00
12413;DHT22;13877;18.896;-99.222;2024-01-30T12:05:25;14.90;1.00
12413;DHT22;13877;18.896;-99.222;2024-01-30T12:07:53;14.80;1.00
12413;DHT22;13877;18.896;-99.222;2024-01-30T12:10:22;14.50;1.00
12413;DHT22;13877;18.896;-99.222;2024-01-30T12:12:53;14.40;1.00
12413;DHT22;13877;18.896;-99.222;2024-01-30T12:15:22;14.20;1.00
12413;DHT22;13877;18.896;-99.222;2024-01-30T12:17:49;14.20;1.00
12413;DHT22;13877;18.896;-99.222;2024-01-30T12:20:20;14.10;1.00
12413;DHT22;13877;18.896;-99.222;2024-01-30T12:22:49;14.20;1.00
12413;DHT22;13877;18.896;-99.222;2024-01-30T12:25:18;14.20;1.00
12413;DHT22;13877;18.896;-99.222;2024-01-30T12:27:48;14.20;1.00
12413;DHT22;13877;18.896;-99.222;2024-01-30T12:30:20;14.30;1.00
12413;DHT22;13877;18.896;-99.222;2024-01-30T12:32:50;14.60;1.00
12413;DHT22;13877;18.896;-99.222;2024-01-30T12:35:19;14.70;1.00
12413;DHT22;13877;18.896;-99.222;2024-01-30T12:37:48;14.70;1.00
12413;DHT22;13877;18.896;-99.222;2024-01-30T12:40:16;14.50;1.00
12413;DHT22;13877;18.896;-99.222;2024-01-30T12:42:47;14.50;1.00
12413;DHT22;13877;18.896;-99.222;2024-01-30T12:45:19;14.50;1.00
12413;DHT22;13877;18.896;-99.222;2024-01-30T12:47:49;14.70;1.00
12413;DHT22;13877;18.896;-99.222;2024-01-30T12:50:16;14.70;1.00
12413;DHT22;13877;18.896;-99.222;2024-01-30T12:52:44;14.40;1.00
12413;DHT22;13877;18.896;-99.222;2024-01-30T12:55:11;14.30;1.00
12413;DHT22;13877;18.896;-99.222;2024-01-30T12:57:39;14.30;1.00
12413;DHT22;13877;18.896;-99.222;2024-01-30T13:00:07;14.20;1.00
12413;DHT22;13877;18.896;-99.222;2024-01-30T13:02:37;14.20;1.00
12413;DHT22;13877;18.896;-99.222;2024-01-30T13:05:05;14.40;1.00
12413;DHT22;13877;18.896;-99.222;2024-01-30T13:07:32;14.80;1.00
12413;DHT22;13877;18.896;-99.222;2024-01-30T13:10:03;15.00;1.00
12413;DHT22;13877;18.896;-99.222;2024-01-30T13:12:33;15.20;1.00
12413;DHT22;13877;18.896;-99.222;2024-01-30T13:15:01;15.20;1.00
12413;DHT22;13877;18.896;-99.222;2024-01-30T13:17:31;15.10;1.00
12413;DHT22;13877;18.896;-99.222;2024-01-30T13:19:58;15.00;1.00
12413;DHT22;13877;18.896;-99.222;2024-01-30T13:22:26;14.90;1.00
12413;DHT22;13877;18.896;-99.222;2024-01-30T13:24:53;14.90;1.00
12413;DHT22;13877;18.896;-99.222;2024-01-30T13:27:21;14.90;1.00
12413;DHT22;13877;18.896;-99.222;2024-01-30T13:29:48;14.90;1.00
12413;DHT22;13877;18.896;-99.222;2024-01-30T13:32:15;15.00;1.00
12413;DHT22;13877;18.896;-99.222;2024-01-30T13:34:43;15.20;1.00
12413;DHT22;13877;18.896;-99.222;2024-01-30T13:37:10;15.30;1.00
12413;DHT22;13877;18.896;-99.222;2024-01-30T13:39:37;15.50;1.00
12413;DHT22;13877;18.896;-99.222;2024-01-30T13:42:05;15.60;1.00
12413;DHT22;13877;18.896;-99.222;2024-01-30T13:44:33;15.70;1.00
12413;DHT22;13877;18.896;-99.222;2024-01-30T13:47:00;15.70;1.00
12413;DHT22;13877;18.896;-99.222;2024-01-30T13:49:28;15.80;1.00
12413;DHT22;13877;18.896;-99.222;2024-01-30T13:51:55;15.90;1.00
12413;DHT22;13877;18.896;-99.222;2024-01-30T13:54:22;15.90;1.00
12413;DHT22;13877;18.896;-99.222;2024-01-30T13:56:51;15.90;1.00
12413;DHT22;13877;18.896;-99.222;2024-01-30T13:59:18;16.00;1.00
12413;DHT22;13877;18.896;-99.222;2024-01-30T14:01:50;16.00;1.00
12413;DHT22;13877;18.896;-99.222;2024-01-30T14:04:17;16.10;1.00
12413;DHT22;13877;18.896;-99.222;2024-01-30T14:06:44;16.10;1.00
12413;DHT22;13877;18.896;-99.222;2024-01-30T14:09:12;16.20;1.00
12413;DHT22;13877;18.896;-99.222;2024-01-30T14:11:42;16.40;1.00
12413;DHT22;13877;18.896;-99.222;2024-01-30T14:14:09;16.60;1.00
12413;DHT22;13877;18.896;-99.222;2024-01-30T14:16:37;16.80;1.00
12413;DHT22;13877;18.896;-99.222;2024-01-30T14:19:04;16.90;1.00
12413;DHT22;13877;18.896;-99.222;2024-01-30T14:21:31;17.00;1.00
12413;DHT22;13877;18.896;-99.222;2024-01-30T14:23:58;17.20;1.00
12413;DHT22;13877;18.896;-99.222;2024-01-30T14:26:26;17.40;1.00
12413;DHT22;13877;18.896;-99.222;2024-01-30T14:28:53;17.50;1.00
12413;DHT22;13877;18.896;-99.222;2024-01-30T14:31:22;17.70;1.00
12413;DHT22;13877;18.896;-99.222;2024-01-30T14:33:50;17.80;1.00
12413;DHT22;13877;18.896;-99.222;2024-01-30T14:36:18;17.90;1.00
12413;DHT22;13877;18.896;-99.222;2024-01-30T14:38:46;18.00;1.00
12413;DHT22;13877;18.896;-99.222;2024-01-30T14:41:14;18.00;1.00
12413;DHT22;13877;18.896;-99.222;2024-01-30T14:43:41;18.10;1.00
12413;DHT22;13877;18.896;-99.222;2024-01-30T14:46:08;18.10;1.00
12413;DHT22;13877;18.896;-99.222;2024-01-30T14:48:37;18.10;1.00
12413;DHT22;13877;18.896;-99.222;2024-01-30T14:51:05;18.00;1.00
12413;DHT22;13877;18.896;-99.222;2024-01-30T14:53:32;18.10;1.00
12413;DHT22;13877;18.896;-99.222;2024-01-30T14:55:59;18.10;1.00
12413;DHT22;13877;18.896;-99.222;2024-01-30T14:58:26;18.10;1.00
12413;DHT22;13877;18.896;-99.222;2024-01-30T15:00:54;18.10;1.00
12413;DHT22;13877;18.896;-99.222;2024-01-30T15:03:21;18.10;1.00
12413;DHT22;13877;18.896;-99.222;2024-01-30T15:05:48;18.10;1.00
12413;DHT22;13877;18.896;-99.222;2024-01-30T15:08:15;18.30;1.00
12413;DHT22;13877;18.896;-99.222;2024-01-30T15:10:43;18.40;1.00
12413;DHT22;13877;18.896;-99.222;2024-01-30T15:13:10;18.40;1.00
12413;DHT22;13877;18.896;-99.222;2024-01-30T15:15:38;18.50;1.00
12413;DHT22;13877;18.896;-99.222;2024-01-30T15:18:05;18.60;1.00
12413;DHT22;13877;18.896;-99.222;2024-01-30T15:20:33;18.70;1.00
12413;DHT22;13877;18.896;-99.222;2024-01-30T15:23:00;18.70;1.00
12413;DHT22;13877;18.896;-99.222;2024-01-30T15:25:27;18.80;1.00